sensor_id;sensor_type;location;lat;lon;timestamp;pressure;altitude;pressure_sealevel;temperature;humidity
33845;BME280;20145;43.118;25.694;2023-02-17T00:01:20;100302.38;;;5.97;64.07
33845;BME280;20145;43.118;25.694;2023-02-17T00:03:46;100304.56;;;5.80;63.91
33845;BME280;20145;43.118;25.694;2023-02-17T00:06:13;100299.88;;;5.61;63.69
33845;BME280;20145;43.118;25.694;2023-02-17T00:08:39;100299.41;;;5.41;64.55
33845;BME280;20145;43.118;25.694;2023-02-17T00:11:06;100290.44;;;5.22;64.52
33845;BME280;20145;43.118;25.694;2023-02-17T00:13:32;100294.66;;;5.20;65.32
33845;BME280;20145;43.118;25.694;2023-02-17T00:15:58;100285.66;;;5.01;65.54
33845;BME280;20145;43.118;25.694;2023-02-17T00:18:23;100245.31;;;4.55;65.25
33845;BME280;20145;43.118;25.694;2023-02-17T00:20:49;100287.34;;;4.66;65.57
33845;BME280;20145;43.118;25.694;2023-02-17T00:23:15;100292.75;;;4.45;67.25
33845;BME280;20145;43.118;25.694;2023-02-17T00:25:41;100281.53;;;4.40;68.79
33845;BME280;20145;43.118;25.694;2023-02-17T00:28:06;100282.94;;;4.29;68.69
33845;BME280;20145;43.118;25.694;2023-02-17T00:30:32;100265.22;;;4.05;67.76
33845;BME280;20145;43.118;25.694;2023-02-17T00:32:58;100282.94;;;3.98;68.55
33845;BME280;20145;43.118;25.694;2023-02-17T00:35:24;100275.84;;;3.88;70.01
33845;BME280;20145;43.118;25.694;2023-02-17T00:37:49;100268.75;;;3.78;69.02
33845;BME280;20145;43.118;25.694;2023-02-17T00:40:15;100267.34;;;3.59;68.38
33845;BME280;20145;43.118;25.694;2023-02-17T00:42:40;100273.66;;;3.43;69.38
33845;BME280;20145;43.118;25.694;2023-02-17T00:45:07;100258.69;;;3.27;69.85
33845;BME280;20145;43.118;25.694;2023-02-17T00:47:32;100262.59;;;3.16;70.04
33845;BME280;20145;43.118;25.694;2023-02-17T00:49:58;100258.81;;;3.03;72.49
33845;BME280;20145;43.118;25.694;2023-02-17T00:52:24;100258.47;;;2.94;73.17
33845;BME280;20145;43.118;25.694;2023-02-17T00:54:49;100258.84;;;2.79;73.58
33845;BME280;20145;43.118;25.694;2023-02-17T00:57:15;100250.91;;;2.70;72.92
33845;BME280;20145;43.118;25.694;2023-02-17T00:59:40;100244.75;;;2.63;73.52
33845;BME280;20145;43.118;25.694;2023-02-17T01:02:06;100249.53;;;2.54;74.72
33845;BME280;20145;43.118;25.694;2023-02-17T01:04:32;100245.09;;;2.48;74.71
33845;BME280;20145;43.118;25.694;2023-02-17T01:06:57;100246.59;;;2.41;75.01
33845;BME280;20145;43.118;25.694;2023-02-17T01:09:23;100243.13;;;2.39;75.54
33845;BME280;20145;43.118;25.694;2023-02-17T01:11:49;100238.69;;;2.34;76.00
33845;BME280;20145;43.118;25.694;2023-02-17T01:14:14;100242.91;;;2.33;76.13
33845;BME280;20145;43.118;25.694;2023-02-17T01:16:45;100240.19;;;2.29;76.07
33845;BME280;20145;43.118;25.694;2023-02-17T01:19:15;100236.69;;;2.25;75.97
33845;BME280;20145;43.118;25.694;2023-02-17T01:21:42;100229.75;;;2.21;77.56
33845;BME280;20145;43.118;25.694;2023-02-17T01:24:07;100197.97;;;2.10;77.21
33845;BME280;20145;43.118;25.694;2023-02-17T01:26:34;100220.75;;;2.31;77.05
33845;BME280;20145;43.118;25.694;2023-02-17T01:29:02;100217.06;;;2.22;76.30
33845;BME280;20145;43.118;25.694;2023-02-17T01:31:28;100223.13;;;2.26;77.41
33845;BME280;20145;43.118;25.694;2023-02-17T01:33:59;100221.34;;;2.23;76.31
33845;BME280;20145;43.118;25.694;2023-02-17T01:36:25;100220.75;;;2.31;76.56
33845;BME280;20145;43.118;25.694;2023-02-17T01:38:51;100212.84;;;2.23;77.21
33845;BME280;20145;43.118;25.694;2023-02-17T01:41:20;100222.53;;;2.33;77.63
33845;BME280;20145;43.118;25.694;2023-02-17T01:46:34;100201.16;;;2.28;77.36
33845;BME280;20145;43.118;25.694;2023-02-17T01:49:02;100213.06;;;2.29;77.18
33845;BME280;20145;43.118;25.694;2023-02-17T01:51:33;100213.88;;;2.28;76.10
33845;BME280;20145;43.118;25.694;2023-02-17T01:54:23;100222.00;;;2.18;76.46
33845;BME280;20145;43.118;25.694;2023-02-17T01:56:52;100215.72;;;2.08;76.65
33845;BME280;20145;43.118;25.694;2023-02-17T01:59:20;100210.81;;;1.89;76.43
33845;BME280;20145;43.118;25.694;2023-02-17T02:01:51;100209.69;;;1.82;76.77
33845;BME280;20145;43.118;25.694;2023-02-17T02:04:21;100211.22;;;1.77;76.63
33845;BME280;20145;43.118;25.694;2023-02-17T02:06:48;100206.84;;;1.73;77.71
33845;BME280;20145;43.118;25.694;2023-02-17T02:09:19;100204.13;;;1.68;77.90
33845;BME280;20145;43.118;25.694;2023-02-17T02:11:50;100204.13;;;1.68;78.26
33845;BME280;20145;43.118;25.694;2023-02-17T02:14:17;100204.13;;;1.68;77.93
33845;BME280;20145;43.118;25.694;2023-02-17T02:16:53;100206.63;;;1.67;78.30
33845;BME280;20145;43.118;25.694;2023-02-17T02:30:25;100210.19;;;1.72;77.95
33845;BME280;20145;43.118;25.694;2023-02-17T02:38:15;100210.03;;;1.67;77.53
33845;BME280;20145;43.118;25.694;2023-02-17T02:41:09;100212.78;;;1.73;77.39
33845;BME280;20145;43.118;25.694;2023-02-17T02:43:36;100216.09;;;1.71;77.07
33845;BME280;20145;43.118;25.694;2023-02-17T02:46:02;100200.59;;;1.65;77.79
33845;BME280;20145;43.118;25.694;2023-02-17T02:48:28;100203.31;;;1.69;76.78
33845;BME280;20145;43.118;25.694;2023-02-17T02:50:57;100217.66;;;1.67;78.63
33845;BME280;20145;43.118;25.694;2023-02-17T02:53:45;100221.16;;;1.71;78.54
33845;BME280;20145;43.118;25.694;2023-02-17T03:05:14;100218.25;;;1.84;78.79
33845;BME280;20145;43.118;25.694;2023-02-17T03:07:51;100191.41;;;1.68;78.94
33845;BME280;20145;43.118;25.694;2023-02-17T03:10:19;100214.66;;;1.77;79.30
33845;BME280;20145;43.118;25.694;2023-02-17T03:12:45;100211.81;;;1.70;78.54
33845;BME280;20145;43.118;25.694;2023-02-17T03:15:30;100223.72;;;1.71;77.16
33845;BME280;20145;43.118;25.694;2023-02-17T03:17:57;100222.78;;;1.69;78.56
33845;BME280;20145;43.118;25.694;2023-02-17T03:20:24;100175.72;;;1.33;77.79
33845;BME280;20145;43.118;25.694;2023-02-17T03:22:50;100215.44;;;1.52;77.62
33845;BME280;20145;43.118;25.694;2023-02-17T03:25:16;100222.44;;;1.60;78.16
33845;BME280;20145;43.118;25.694;2023-02-17T03:27:41;100225.84;;;1.60;78.23
33845;BME280;20145;43.118;25.694;2023-02-17T03:30:08;100228.41;;;1.60;78.93
33845;BME280;20145;43.118;25.694;2023-02-17T03:32:34;100218.13;;;1.57;78.71
33845;BME280;20145;43.118;25.694;2023-02-17T03:35:00;100214.41;;;1.49;78.75
33845;BME280;20145;43.118;25.694;2023-02-17T03:37:26;100217.78;;;1.48;78.86
33845;BME280;20145;43.118;25.694;2023-02-17T03:39:52;100217.69;;;1.45;78.95
33845;BME280;20145;43.118;25.694;2023-02-17T03:42:17;100221.25;;;1.50;78.78
33845;BME280;20145;43.118;25.694;2023-02-17T03:44:43;100229.84;;;1.53;78.82
33845;BME280;20145;43.118;25.694;2023-02-17T03:47:08;100222.13;;;1.50;79.82
33845;BME280;20145;43.118;25.694;2023-02-17T03:49:34;100231.75;;;1.59;79.18
33845;BME280;20145;43.118;25.694;2023-02-17T03:51:59;100231.06;;;1.63;79.26
33845;BME280;20145;43.118;25.694;2023-02-17T03:54:26;100239.63;;;1.65;79.39
33845;BME280;20145;43.118;25.694;2023-02-17T03:56:51;100238.88;;;1.68;79.28
33845;BME280;20145;43.118;25.694;2023-02-17T03:59:17;100226.03;;;1.65;78.16
33845;BME280;20145;43.118;25.694;2023-02-17T04:01:43;100225.22;;;1.66;78.38
33845;BME280;20145;43.118;25.694;2023-02-17T04:04:08;100221.78;;;1.64;78.05
33845;BME280;20145;43.118;25.694;2023-02-17T04:06:35;100231.13;;;1.65;78.10
33845;BME280;20145;43.118;25.694;2023-02-17T04:09:01;100241.22;;;1.63;78.22
33845;BME280;20145;43.118;25.694;2023-02-17T04:11:27;100234.19;;;1.56;78.06
33845;BME280;20145;43.118;25.694;2023-02-17T04:13:52;100234.88;;;1.52;78.01
33845;BME280;20145;43.118;25.694;2023-02-17T04:16:18;100233.97;;;1.50;78.59
33845;BME280;20145;43.118;25.694;2023-02-17T04:18:43;100238.88;;;1.45;78.20
33845;BME280;20145;43.118;25.694;2023-02-17T04:21:09;100236.78;;;1.35;78.31
33845;BME280;20145;43.118;25.694;2023-02-17T04:23:35;100244.63;;;1.41;78.52
33845;BME280;20145;43.118;25.694;2023-02-17T04:26:03;100247.19;;;1.41;80.78
33845;BME280;20145;43.118;25.694;2023-02-17T04:28:28;100246.31;;;1.41;79.59
33845;BME280;20145;43.118;25.694;2023-02-17T04:30:56;100247.06;;;1.38;79.00
33845;BME280;20145;43.118;25.694;2023-02-17T04:33:22;100245.34;;;1.37;79.13
33845;BME280;20145;43.118;25.694;2023-02-17T04:35:48;100224.53;;;1.25;79.13
33845;BME280;20145;43.118;25.694;2023-02-17T04:38:13;100238.97;;;1.26;78.86
33845;BME280;20145;43.118;25.694;2023-02-17T04:40:39;100242.16;;;1.20;79.31
33845;BME280;20145;43.118;25.694;2023-02-17T04:43:05;100230.75;;;1.10;79.33
33845;BME280;20145;43.118;25.694;2023-02-17T04:45:30;100244.38;;;1.13;79.13
33845;BME280;20145;43.118;25.694;2023-02-17T04:47:56;100235.78;;;1.09;79.48
33845;BME280;20145;43.118;25.694;2023-02-17T04:50:21;100252.19;;;1.17;79.74
33845;BME280;20145;43.118;25.694;2023-02-17T04:52:47;100243.56;;;1.14;79.36
33845;BME280;20145;43.118;25.694;2023-02-17T04:55:13;100241.84;;;1.13;79.77
33845;BME280;20145;43.118;25.694;2023-02-17T04:57:38;100239.31;;;1.13;79.30
33845;BME280;20145;43.118;25.694;2023-02-17T05:00:05;100250.59;;;1.19;79.48
33845;BME280;20145;43.118;25.694;2023-02-17T05:02:31;100241.91;;;1.14;79.25
33845;BME280;20145;43.118;25.694;2023-02-17T05:04:56;100251.38;;;1.18;79.28
33845;BME280;20145;43.118;25.694;2023-02-17T05:07:23;100266.06;;;1.25;79.68
33845;BME280;20145;43.118;25.694;2023-02-17T05:09:48;100266.97;;;1.27;79.43
33845;BME280;20145;43.118;25.694;2023-02-17T05:12:14;100257.44;;;1.22;79.29
33845;BME280;20145;43.118;25.694;2023-02-17T05:14:39;100252.13;;;1.16;79.00
33845;BME280;20145;43.118;25.694;2023-02-17T05:17:05;100270.16;;;1.22;78.92
33845;BME280;20145;43.118;25.694;2023-02-17T05:19:32;100271.78;;;1.20;79.08
33845;BME280;20145;43.118;25.694;2023-02-17T05:21:57;100265.25;;;1.26;79.21
33845;BME280;20145;43.118;25.694;2023-02-17T05:24:23;100267.56;;;1.20;79.04
33845;BME280;20145;43.118;25.694;2023-02-17T05:26:48;100272.25;;;1.32;79.04
33845;BME280;20145;43.118;25.694;2023-02-17T05:29:14;100265.59;;;1.36;79.37
33845;BME280;20145;43.118;25.694;2023-02-17T05:31:39;100270.13;;;1.43;79.23
33845;BME280;20145;43.118;25.694;2023-02-17T05:34:05;100267.69;;;1.46;79.74
33845;BME280;20145;43.118;25.694;2023-02-17T05:36:30;100274.47;;;1.68;80.01
33845;BME280;20145;43.118;25.694;2023-02-17T05:38:56;100274.06;;;1.79;79.25
33845;BME280;20145;43.118;25.694;2023-02-17T05:41:21;100268.81;;;1.75;78.50
33845;BME280;20145;43.118;25.694;2023-02-17T05:43:47;100279.50;;;1.89;78.80
33845;BME280;20145;43.118;25.694;2023-02-17T05:46:13;100280.66;;;1.97;78.88
33845;BME280;20145;43.118;25.694;2023-02-17T05:48:39;100267.22;;;2.01;78.69
33845;BME280;20145;43.118;25.694;2023-02-17T05:51:05;100281.41;;;2.18;78.11
33845;BME280;20145;43.118;25.694;2023-02-17T05:53:31;100282.72;;;2.31;78.94
33845;BME280;20145;43.118;25.694;2023-02-17T05:55:56;100289.13;;;2.44;78.22
33845;BME280;20145;43.118;25.694;2023-02-17T05:58:22;100283.69;;;2.59;78.78
33845;BME280;20145;43.118;25.694;2023-02-17T06:00:47;100288.31;;;2.71;78.14
33845;BME280;20145;43.118;25.694;2023-02-17T06:03:13;100282.81;;;2.84;78.70
33845;BME280;20145;43.118;25.694;2023-02-17T06:05:39;100297.13;;;3.06;77.33
33845;BME280;20145;43.118;25.694;2023-02-17T06:08:05;100289.97;;;3.21;77.54
33845;BME280;20145;43.118;25.694;2023-02-17T06:10:31;100297.00;;;3.28;77.83
33845;BME280;20145;43.118;25.694;2023-02-17T06:12:56;100297.44;;;3.42;77.81
33845;BME280;20145;43.118;25.694;2023-02-17T06:15:22;100297.09;;;3.58;76.54
33845;BME280;20145;43.118;25.694;2023-02-17T06:17:47;100304.56;;;3.81;76.75
33845;BME280;20145;43.118;25.694;2023-02-17T06:20:13;100305.91;;;3.98;77.19
33845;BME280;20145;43.118;25.694;2023-02-17T06:22:39;100300.41;;;4.13;75.96
33845;BME280;20145;43.118;25.694;2023-02-17T06:25:05;100300.00;;;4.30;75.72
33845;BME280;20145;43.118;25.694;2023-02-17T06:27:31;100297.00;;;4.46;73.62
33845;BME280;20145;43.118;25.694;2023-02-17T06:29:56;100296.59;;;4.62;71.11
33845;BME280;20145;43.118;25.694;2023-02-17T06:32:22;100302.97;;;4.77;70.45
33845;BME280;20145;43.118;25.694;2023-02-17T06:34:47;100302.25;;;4.82;69.63
33845;BME280;20145;43.118;25.694;2023-02-17T06:37:13;100310.16;;;4.93;69.26
33845;BME280;20145;43.118;25.694;2023-02-17T06:39:38;100311.78;;;4.89;68.50
33845;BME280;20145;43.118;25.694;2023-02-17T06:42:04;100315.34;;;4.95;68.75
33845;BME280;20145;43.118;25.694;2023-02-17T06:44:29;100309.28;;;4.91;69.71
33845;BME280;20145;43.118;25.694;2023-02-17T06:46:55;100313.63;;;4.94;69.18
33845;BME280;20145;43.118;25.694;2023-02-17T06:49:21;100320.66;;;5.04;68.85
33845;BME280;20145;43.118;25.694;2023-02-17T06:51:47;100316.47;;;5.06;67.85
33845;BME280;20145;43.118;25.694;2023-02-17T06:54:12;100325.13;;;5.11;67.44
33845;BME280;20145;43.118;25.694;2023-02-17T06:56:38;100322.72;;;5.17;68.27
33845;BME280;20145;43.118;25.694;2023-02-17T06:59:03;100318.63;;;5.24;67.92
33845;BME280;20145;43.118;25.694;2023-02-17T07:01:29;100311.03;;;5.27;68.55
33845;BME280;20145;43.118;25.694;2023-02-17T07:03:55;100326.72;;;5.42;68.50
33845;BME280;20145;43.118;25.694;2023-02-17T07:06:22;100315.75;;;5.48;68.95
33845;BME280;20145;43.118;25.694;2023-02-17T07:08:49;100323.69;;;5.58;67.98
33845;BME280;20145;43.118;25.694;2023-02-17T07:11:15;100329.00;;;5.68;68.65
33845;BME280;20145;43.118;25.694;2023-02-17T07:13:41;100332.00;;;5.86;67.67
33845;BME280;20145;43.118;25.694;2023-02-17T07:16:08;100325.59;;;6.05;68.00
33845;BME280;20145;43.118;25.694;2023-02-17T07:18:33;100342.25;;;6.25;66.37
33845;BME280;20145;43.118;25.694;2023-02-17T07:20:59;100333.19;;;6.41;65.30
33845;BME280;20145;43.118;25.694;2023-02-17T07:23:25;100331.63;;;6.50;65.63
33845;BME280;20145;43.118;25.694;2023-02-17T07:25:51;100352.47;;;6.66;65.87
33845;BME280;20145;43.118;25.694;2023-02-17T07:28:16;100351.81;;;6.77;65.21
33845;BME280;20145;43.118;25.694;2023-02-17T07:30:42;100348.59;;;6.88;64.90
33845;BME280;20145;43.118;25.694;2023-02-17T07:33:09;100353.06;;;6.99;64.34
33845;BME280;20145;43.118;25.694;2023-02-17T07:35:40;100347.28;;;7.12;64.08
33845;BME280;20145;43.118;25.694;2023-02-17T07:38:06;100339.88;;;7.29;63.91
33845;BME280;20145;43.118;25.694;2023-02-17T07:40:32;100347.00;;;7.47;60.43
33845;BME280;20145;43.118;25.694;2023-02-17T07:42:58;100312.44;;;7.25;61.88
33845;BME280;20145;43.118;25.694;2023-02-17T07:45:23;100348.94;;;7.60;61.11
33845;BME280;20145;43.118;25.694;2023-02-17T07:47:49;100332.75;;;7.66;60.21
33845;BME280;20145;43.118;25.694;2023-02-17T07:50:14;100350.22;;;7.91;60.83
33845;BME280;20145;43.118;25.694;2023-02-17T07:52:41;100329.75;;;7.97;59.50
33845;BME280;20145;43.118;25.694;2023-02-17T07:55:06;100336.94;;;8.23;58.70
33845;BME280;20145;43.118;25.694;2023-02-17T07:57:32;100342.56;;;8.61;55.67
33845;BME280;20145;43.118;25.694;2023-02-17T07:59:57;100321.44;;;8.94;52.23
33845;BME280;20145;43.118;25.694;2023-02-17T08:02:23;100354.59;;;9.58;51.38
33845;BME280;20145;43.118;25.694;2023-02-17T08:04:50;100340.13;;;9.73;50.97
33845;BME280;20145;43.118;25.694;2023-02-17T08:07:16;100353.19;;;10.03;49.10
33845;BME280;20145;43.118;25.694;2023-02-17T08:09:41;100366.16;;;10.22;49.60
33845;BME280;20145;43.118;25.694;2023-02-17T08:12:25;100374.00;;;10.37;48.33
33845;BME280;20145;43.118;25.694;2023-02-17T08:15:10;100359.41;;;10.41;48.52
33845;BME280;20145;43.118;25.694;2023-02-17T08:17:36;100361.09;;;10.42;49.31
33845;BME280;20145;43.118;25.694;2023-02-17T08:20:03;100361.16;;;10.45;49.57
33845;BME280;20145;43.118;25.694;2023-02-17T08:22:28;100371.44;;;10.43;49.20
33845;BME280;20145;43.118;25.694;2023-02-17T08:24:54;100358.53;;;10.37;49.04
33845;BME280;20145;43.118;25.694;2023-02-17T08:27:20;100357.72;;;10.47;48.84
33845;BME280;20145;43.118;25.694;2023-02-17T08:29:46;100362.00;;;10.50;49.60
33845;BME280;20145;43.118;25.694;2023-02-17T08:32:13;100362.03;;;10.56;49.39
33845;BME280;20145;43.118;25.694;2023-02-17T08:34:39;100359.47;;;10.62;49.21
33845;BME280;20145;43.118;25.694;2023-02-17T08:37:05;100365.56;;;10.78;47.96
33845;BME280;20145;43.118;25.694;2023-02-17T08:39:32;100363.00;;;10.92;47.84
33845;BME280;20145;43.118;25.694;2023-02-17T08:41:58;100361.31;;;11.06;47.33
33845;BME280;20145;43.118;25.694;2023-02-17T08:44:24;100361.28;;;11.02;47.07
33845;BME280;20145;43.118;25.694;2023-02-17T08:46:50;100353.53;;;11.08;47.96
33845;BME280;20145;43.118;25.694;2023-02-17T08:49:19;100350.97;;;11.12;47.30
33845;BME280;20145;43.118;25.694;2023-02-17T08:51:45;100348.41;;;11.37;46.11
33845;BME280;20145;43.118;25.694;2023-02-17T08:54:11;100345.81;;;11.46;45.91
33845;BME280;20145;43.118;25.694;2023-02-17T08:56:38;100349.22;;;11.68;44.89
33845;BME280;20145;43.118;25.694;2023-02-17T08:59:05;100332.81;;;11.83;44.79
33845;BME280;20145;43.118;25.694;2023-02-17T09:01:31;100338.03;;;11.92;43.59
33845;BME280;20145;43.118;25.694;2023-02-17T09:03:59;100337.13;;;12.07;43.28
33845;BME280;20145;43.118;25.694;2023-02-17T09:06:34;100329.31;;;12.13;43.95
33845;BME280;20145;43.118;25.694;2023-02-17T09:09:00;100331.00;;;12.31;43.76
33845;BME280;20145;43.118;25.694;2023-02-17T09:11:26;100326.66;;;12.30;43.10
33845;BME280;20145;43.118;25.694;2023-02-17T09:13:51;100330.97;;;12.39;42.49
33845;BME280;20145;43.118;25.694;2023-02-17T09:16:17;100333.50;;;12.48;41.84
33845;BME280;20145;43.118;25.694;2023-02-17T09:18:45;100341.19;;;12.65;42.15
33845;BME280;20145;43.118;25.694;2023-02-17T09:21:11;100333.41;;;12.63;40.79
33845;BME280;20145;43.118;25.694;2023-02-17T09:23:39;100339.41;;;12.73;42.04
33845;BME280;20145;43.118;25.694;2023-02-17T09:26:07;100336.72;;;12.88;41.08
33845;BME280;20145;43.118;25.694;2023-02-17T09:28:34;100334.91;;;13.01;39.82
33845;BME280;20145;43.118;25.694;2023-02-17T09:31:21;100338.31;;;13.09;40.87
33845;BME280;20145;43.118;25.694;2023-02-17T09:33:48;100334.84;;;13.12;40.46
33845;BME280;20145;43.118;25.694;2023-02-17T09:36:17;100355.53;;;13.16;40.67
33845;BME280;20145;43.118;25.694;2023-02-17T09:38:43;100327.84;;;13.18;40.68
33845;BME280;20145;43.118;25.694;2023-02-17T09:43:43;100330.44;;;13.25;39.88
33845;BME280;20145;43.118;25.694;2023-02-17T09:46:32;100330.44;;;13.28;40.04
33845;BME280;20145;43.118;25.694;2023-02-17T09:49:02;100318.25;;;13.37;39.45
33845;BME280;20145;43.118;25.694;2023-02-17T09:51:50;100303.59;;;13.32;39.47
33845;BME280;20145;43.118;25.694;2023-02-17T09:54:36;100327.59;;;13.54;40.44
33845;BME280;20145;43.118;25.694;2023-02-17T09:57:05;100315.41;;;13.60;41.19
33845;BME280;20145;43.118;25.694;2023-02-17T09:59:37;100312.91;;;13.56;39.83
33845;BME280;20145;43.118;25.694;2023-02-17T10:02:14;100324.13;;;13.58;38.96
33845;BME280;20145;43.118;25.694;2023-02-17T10:04:45;100312.75;;;13.70;39.58
33845;BME280;20145;43.118;25.694;2023-02-17T10:07:17;100312.75;;;13.70;38.90
33845;BME280;20145;43.118;25.694;2023-02-17T10:10:07;100312.53;;;13.90;37.81
33845;BME280;20145;43.118;25.694;2023-02-17T10:12:40;100316.66;;;14.07;38.84
33845;BME280;20145;43.118;25.694;2023-02-17T10:15:09;100306.13;;;14.20;36.28
33845;BME280;20145;43.118;25.694;2023-02-17T10:20:19;100293.03;;;14.31;35.47
33845;BME280;20145;43.118;25.694;2023-02-17T10:22:50;100291.19;;;14.39;34.97
33845;BME280;20145;43.118;25.694;2023-02-17T10:25:20;100283.22;;;14.54;36.11
33845;BME280;20145;43.118;25.694;2023-02-17T10:28:09;100275.22;;;14.68;35.63
33845;BME280;20145;43.118;25.694;2023-02-17T10:31:01;100279.19;;;14.92;35.49
33845;BME280;20145;43.118;25.694;2023-02-17T10:33:35;100273.72;;;15.07;34.97
33845;BME280;20145;43.118;25.694;2023-02-17T10:38:57;100259.28;;;14.91;35.67
33845;BME280;20145;43.118;25.694;2023-02-17T10:41:32;100267.59;;;15.11;35.13
33845;BME280;20145;43.118;25.694;2023-02-17T10:44:00;100266.59;;;15.18;33.67
33845;BME280;20145;43.118;25.694;2023-02-17T10:46:29;100261.41;;;15.18;33.57
33845;BME280;20145;43.118;25.694;2023-02-17T10:48:56;100250.16;;;15.18;34.12
33845;BME280;20145;43.118;25.694;2023-02-17T10:51:28;100260.66;;;15.12;33.58
33845;BME280;20145;43.118;25.694;2023-02-17T10:54:05;100263.88;;;15.26;34.48
33845;BME280;20145;43.118;25.694;2023-02-17T10:56:40;100269.72;;;15.39;33.47
33845;BME280;20145;43.118;25.694;2023-02-17T10:59:30;100249.66;;;15.47;33.98
33845;BME280;20145;43.118;25.694;2023-02-17T11:04:44;100244.41;;;15.49;33.26
33845;BME280;20145;43.118;25.694;2023-02-17T11:07:12;100233.78;;;15.61;33.13
33845;BME280;20145;43.118;25.694;2023-02-17T11:09:47;100245.06;;;15.60;34.33
33845;BME280;20145;43.118;25.694;2023-02-17T11:12:42;100238.28;;;15.53;34.00
33845;BME280;20145;43.118;25.694;2023-02-17T11:15:17;100234.63;;;15.63;33.65
33845;BME280;20145;43.118;25.694;2023-02-17T11:17:44;100220.72;;;15.64;34.43
33845;BME280;20145;43.118;25.694;2023-02-17T11:22:43;100224.72;;;15.82;33.94
33845;BME280;20145;43.118;25.694;2023-02-17T11:25:23;100231.84;;;15.72;34.49
33845;BME280;20145;43.118;25.694;2023-02-17T11:27:57;100224.91;;;15.73;35.19
33845;BME280;20145;43.118;25.694;2023-02-17T11:30:25;100225.53;;;15.84;34.13
33845;BME280;20145;43.118;25.694;2023-02-17T11:32:52;100233.44;;;15.79;35.36
33845;BME280;20145;43.118;25.694;2023-02-17T11:38:17;100209.84;;;15.87;35.06
33845;BME280;20145;43.118;25.694;2023-02-17T11:40:57;100208.56;;;16.06;34.06
33845;BME280;20145;43.118;25.694;2023-02-17T11:43:23;100217.13;;;16.13;33.52
33845;BME280;20145;43.118;25.694;2023-02-17T12:05:03;100218.59;;;15.84;36.47
33845;BME280;20145;43.118;25.694;2023-02-17T12:24:21;100195.75;;;15.55;39.03
33845;BME280;20145;43.118;25.694;2023-02-17T12:30:34;100204.31;;;15.60;39.43
33845;BME280;20145;43.118;25.694;2023-02-17T12:32:33;100197.19;;;15.70;40.83
33845;BME280;20145;43.118;25.694;2023-02-17T12:37:50;100203.25;;;15.71;39.21
33845;BME280;20145;43.118;25.694;2023-02-17T12:40:35;100192.00;;;15.70;40.39
33845;BME280;20145;43.118;25.694;2023-02-17T12:43:13;100188.53;;;15.70;40.53
33845;BME280;20145;43.118;25.694;2023-02-17T12:45:45;100178.16;;;15.68;41.20
33845;BME280;20145;43.118;25.694;2023-02-17T12:48:21;100180.78;;;15.67;40.32
33845;BME280;20145;43.118;25.694;2023-02-17T12:51:14;100178.97;;;15.70;41.10
33845;BME280;20145;43.118;25.694;2023-02-17T12:56:07;100181.22;;;15.89;39.39
33845;BME280;20145;43.118;25.694;2023-02-17T12:58:43;100189.88;;;15.89;37.44
33845;BME280;20145;43.118;25.694;2023-02-17T13:01:12;100180.38;;;15.88;37.57
33845;BME280;20145;43.118;25.694;2023-02-17T13:03:41;100184.50;;;15.97;38.65
33845;BME280;20145;43.118;25.694;2023-02-17T13:08:59;100192.94;;;16.08;37.01
33845;BME280;20145;43.118;25.694;2023-02-17T13:11:34;100173.19;;;15.99;38.41
33845;BME280;20145;43.118;25.694;2023-02-17T13:14:11;100183.22;;;16.15;37.32
33845;BME280;20145;43.118;25.694;2023-02-17T13:16:44;100184.13;;;16.14;37.85
33845;BME280;20145;43.118;25.694;2023-02-17T13:19:11;100192.03;;;16.11;37.21
33845;BME280;20145;43.118;25.694;2023-02-17T13:21:51;100191.13;;;16.12;37.65
33845;BME280;20145;43.118;25.694;2023-02-17T13:24:34;100178.84;;;16.17;36.53
33845;BME280;20145;43.118;25.694;2023-02-17T13:27:19;100182.97;;;16.27;36.57
33845;BME280;20145;43.118;25.694;2023-02-17T13:29:57;100180.22;;;16.33;36.84
33845;BME280;20145;43.118;25.694;2023-02-17T13:32:28;100183.59;;;16.37;37.49
33845;BME280;20145;43.118;25.694;2023-02-17T13:37:43;100176.41;;;16.09;36.55
33845;BME280;20145;43.118;25.694;2023-02-17T13:42:43;100181.63;;;16.09;37.27
33845;BME280;20145;43.118;25.694;2023-02-17T13:45:19;100181.72;;;16.04;37.43
33845;BME280;20145;43.118;25.694;2023-02-17T13:47:46;100190.34;;;16.08;37.45
33845;BME280;20145;43.118;25.694;2023-02-17T13:50:32;100177.34;;;16.06;36.61
33845;BME280;20145;43.118;25.694;2023-02-17T13:53:00;100177.56;;;15.96;37.73
33845;BME280;20145;43.118;25.694;2023-02-17T13:55:26;100173.69;;;15.75;37.06
33845;BME280;20145;43.118;25.694;2023-02-17T13:57:54;100176.47;;;15.64;36.43
33845;BME280;20145;43.118;25.694;2023-02-17T14:08:06;100189.72;;;15.52;36.73
33845;BME280;20145;43.118;25.694;2023-02-17T14:10:32;100188.00;;;15.51;36.52
33845;BME280;20145;43.118;25.694;2023-02-17T14:12:58;100187.22;;;15.47;36.94
33845;BME280;20145;43.118;25.694;2023-02-17T14:15:25;100186.53;;;15.37;35.56
33845;BME280;20145;43.118;25.694;2023-02-17T14:17:52;100190.94;;;15.35;35.70
33845;BME280;20145;43.118;25.694;2023-02-17T14:20:32;100189.19;;;15.36;35.57
33845;BME280;20145;43.118;25.694;2023-02-17T14:23:12;100181.59;;;15.24;35.16
33845;BME280;20145;43.118;25.694;2023-02-17T14:25:41;100184.31;;;15.19;35.13
33845;BME280;20145;43.118;25.694;2023-02-17T14:28:24;100180.88;;;15.17;35.35
33845;BME280;20145;43.118;25.694;2023-02-17T14:30:51;100197.44;;;15.11;35.71
33845;BME280;20145;43.118;25.694;2023-02-17T14:38:27;100183.66;;;15.06;35.42
33845;BME280;20145;43.118;25.694;2023-02-17T14:40:56;100186.38;;;15.00;36.48
33845;BME280;20145;43.118;25.694;2023-02-17T14:43:23;100166.44;;;15.01;36.45